createdAt,value
2023-04-04T00:02:00.822Z,8.73
2023-04-04T00:04:28.703Z,5.47
2023-04-04T00:06:56.305Z,6.90
2023-04-04T00:09:25.148Z,4.43
2023-04-04T00:11:52.716Z,8.10
2023-04-04T00:14:20.280Z,7.43
2023-04-04T00:16:48.187Z,6.55
2023-04-04T00:19:18.273Z,5.63
2023-04-04T00:21:46.751Z,5.63
2023-04-04T00:24:14.447Z,5.53
2023-04-04T00:26:43.377Z,5.57
2023-04-04T00:29:11.156Z,6.55
2023-04-04T00:31:38.805Z,5.82
2023-04-04T00:34:06.936Z,4.25
2023-04-04T00:36:34.431Z,5.85
2023-04-04T00:39:02.144Z,6.50
2023-04-04T00:41:29.906Z,5.47
2023-04-04T00:43:58.920Z,7.13
2023-04-04T00:46:28.376Z,7.00
2023-04-04T00:48:55.924Z,5.75
2023-04-04T00:51:23.397Z,5.07
2023-04-04T00:53:51.933Z,6.55
2023-04-04T00:56:20.450Z,6.53
2023-04-04T00:58:48.426Z,5.50
2023-04-04T01:01:21.391Z,7.65
2023-04-04T01:03:48.958Z,5.43
2023-04-04T01:06:16.967Z,6.55
2023-04-04T01:08:44.685Z,4.93
2023-04-04T01:11:12.802Z,6.45
2023-04-04T01:13:40.698Z,8.70
2023-04-04T01:16:08.717Z,9.90
2023-04-04T01:18:38.289Z,5.35
2023-04-04T01:21:10.039Z,9.07
2023-04-04T01:23:44.657Z,7.38
2023-04-04T01:26:13.590Z,7.03
2023-04-04T01:28:41.264Z,7.35
2023-04-04T01:31:10.492Z,7.63
2023-04-04T01:33:39.154Z,8.85
2023-04-04T01:36:12.831Z,6.55
2023-04-04T01:38:44.056Z,7.45
2023-04-04T01:41:14.807Z,7.10
2023-04-04T01:43:45.452Z,7.60
2023-04-04T01:46:15.669Z,10.80
2023-04-04T01:48:43.193Z,8.05
2023-04-04T01:51:10.775Z,10.00
2023-04-04T01:53:38.636Z,6.30
2023-04-04T01:56:06.549Z,7.82
2023-04-04T01:58:35.526Z,6.72
2023-04-04T02:01:03.060Z,8.75
2023-04-04T02:03:30.987Z,9.27
2023-04-04T02:05:58.561Z,7.85
2023-04-04T02:08:26.272Z,9.77
2023-04-04T02:10:53.773Z,7.60
2023-04-04T02:13:21.669Z,11.32
2023-04-04T02:15:51.772Z,7.82
2023-04-04T02:18:19.456Z,9.68
2023-04-04T02:20:47.023Z,10.55
2023-04-04T02:23:14.560Z,10.77
2023-04-04T02:25:42.029Z,9.93
2023-04-04T02:28:09.592Z,12.90
2023-04-04T02:30:37.237Z,11.18
2023-04-04T02:33:06.199Z,8.35
2023-04-04T02:35:33.802Z,8.38
2023-04-04T02:38:01.676Z,9.80
2023-04-04T02:40:29.232Z,14.48
2023-04-04T02:42:56.920Z,10.98
2023-04-04T02:45:24.432Z,10.77
2023-04-04T02:47:52.985Z,10.40
2023-04-04T02:50:22.005Z,11.02
2023-04-04T02:52:49.564Z,14.35
2023-04-04T02:55:17.420Z,10.80
2023-04-04T02:57:51.895Z,8.07
2023-04-04T03:00:20.259Z,9.80
2023-04-04T03:02:54.072Z,11.52
2023-04-04T03:05:23.141Z,9.77
2023-04-04T03:07:54.085Z,12.70
2023-04-04T03:10:21.601Z,10.10
2023-04-04T03:12:49.176Z,6.40
2023-04-04T03:15:16.809Z,7.28
2023-04-04T03:17:44.920Z,10.50
2023-04-04T03:20:13.278Z,12.90
2023-04-04T03:22:42.233Z,10.10
2023-04-04T03:25:10.331Z,8.52
2023-04-04T03:27:39.791Z,15.48
2023-04-04T03:30:08.291Z,11.93
2023-04-04T03:32:37.226Z,9.73
2023-04-04T03:35:04.997Z,7.85
2023-04-04T03:37:32.638Z,12.02
2023-04-04T03:40:01.625Z,7.80
2023-04-04T03:42:29.143Z,10.77
2023-04-04T03:44:56.658Z,11.73
2023-04-04T03:47:24.621Z,15.63
2023-04-04T03:49:52.748Z,9.50
2023-04-04T03:52:20.351Z,13.00
2023-04-04T03:54:47.954Z,11.00
2023-04-04T03:57:16.801Z,7.00
2023-04-04T03:59:44.254Z,8.77
2023-04-04T04:02:11.956Z,10.77
2023-04-04T04:04:39.651Z,12.32
2023-04-04T04:07:07.271Z,12.93
2023-04-04T04:09:35.413Z,8.02
2023-04-04T04:12:03.041Z,9.55
2023-04-04T04:14:31.966Z,12.95
2023-04-04T04:16:59.535Z,6.93
2023-04-04T04:19:27.156Z,7.05
2023-04-04T04:21:54.758Z,9.48
2023-04-04T04:24:23.313Z,9.30
2023-04-04T04:26:50.881Z,8.82
2023-04-04T04:29:18.517Z,10.15
2023-04-04T04:31:47.414Z,8.88
2023-04-04T04:34:15.342Z,8.98
2023-04-04T04:36:42.923Z,10.23
2023-04-04T04:39:10.956Z,9.32
2023-04-04T04:41:38.624Z,12.88
2023-04-04T04:44:06.897Z,9.48
2023-04-04T04:46:34.821Z,6.70
2023-04-04T04:49:04.048Z,7.38
2023-04-04T04:51:32.064Z,8.73
2023-04-04T04:53:59.688Z,9.45
2023-04-04T04:56:27.351Z,10.38
2023-04-04T04:58:54.929Z,12.10
2023-04-04T05:01:22.770Z,13.85
2023-04-04T05:03:52.041Z,8.93
2023-04-04T05:06:22.902Z,10.23
2023-04-04T05:08:50.541Z,12.35
2023-04-04T05:11:18.042Z,12.90
2023-04-04T05:13:46.329Z,9.57
2023-04-04T05:16:14.055Z,12.73
2023-04-04T05:18:41.806Z,9.00
2023-04-04T05:21:09.353Z,9.30
2023-04-04T05:23:38.477Z,9.70
2023-04-04T05:26:06.494Z,10.25
2023-04-04T05:28:34.773Z,9.95
2023-04-04T05:33:56.742Z,8.90
2023-04-04T05:36:25.410Z,11.25
2023-04-04T05:38:54.451Z,11.10
2023-04-04T05:41:23.978Z,9.90
2023-04-04T05:43:51.530Z,10.18
2023-04-04T05:46:19.081Z,8.57
2023-04-04T05:48:47.803Z,9.02
2023-04-04T05:51:15.718Z,8.07
2023-04-04T05:53:45.552Z,7.90
2023-04-04T05:59:05.622Z,8.75
2023-04-04T06:01:33.190Z,9.05
2023-04-04T06:04:01.332Z,10.18
2023-04-04T06:06:29.014Z,7.13
2023-04-04T06:08:56.735Z,7.53
2023-04-04T06:11:26.325Z,7.90
2023-04-04T06:13:55.252Z,6.18
2023-04-04T06:16:23.403Z,9.45
2023-04-04T06:18:51.032Z,9.63
2023-04-04T06:21:19.441Z,10.18
2023-04-04T06:23:46.943Z,10.48
2023-04-04T06:26:14.967Z,8.82
2023-04-04T06:28:51.204Z,6.28
2023-04-04T06:31:18.953Z,7.60
2023-04-04T06:33:53.021Z,7.55
2023-04-04T06:36:21.240Z,6.95
2023-04-04T06:38:48.898Z,8.57
2023-04-04T06:41:17.017Z,8.80
2023-04-04T06:43:46.674Z,8.77
2023-04-04T06:46:15.759Z,8.85
2023-04-04T06:48:43.521Z,10.88
2023-04-04T06:51:11.351Z,8.82
2023-04-04T06:53:40.702Z,8.23
2023-04-04T06:56:08.888Z,12.50
2023-04-04T06:58:39.015Z,10.63
2023-04-04T07:01:07.219Z,11.45
2023-04-04T07:06:29.949Z,7.32
2023-04-04T07:08:57.617Z,9.02
2023-04-04T07:11:51.006Z,7.38
2023-04-04T07:14:20.527Z,8.02
2023-04-04T07:16:49.110Z,6.68
2023-04-04T07:19:18.088Z,10.15
2023-04-04T07:21:45.865Z,8.95
2023-04-04T07:24:13.403Z,10.00
2023-04-04T07:26:42.029Z,10.20
2023-04-04T07:29:09.737Z,9.35
2023-04-04T07:31:37.400Z,9.02
2023-04-04T07:34:05.255Z,11.18
2023-04-04T07:36:34.120Z,9.70
2023-04-04T07:39:01.682Z,14.75
2023-04-04T07:41:29.192Z,8.82
2023-04-04T07:43:57.081Z,9.88
2023-04-04T07:46:24.709Z,8.98
2023-04-04T07:48:52.247Z,10.60
2023-04-04T07:51:24.106Z,8.90
2023-04-04T07:53:53.034Z,14.75
2023-04-04T07:56:21.895Z,9.15
2023-04-04T07:58:49.488Z,11.93
2023-04-04T08:01:17.077Z,8.82
2023-04-04T08:03:45.079Z,9.30
2023-04-04T08:06:13.889Z,11.00
2023-04-04T08:08:43.011Z,12.52
2023-04-04T08:11:12.384Z,13.18
2023-04-04T08:13:40.100Z,10.75
2023-04-04T08:16:07.937Z,14.73
2023-04-04T08:21:27.940Z,11.90
2023-04-04T08:24:18.030Z,13.05
2023-04-04T08:36:00.260Z,8.20
2023-04-04T08:38:27.893Z,9.80
2023-04-04T08:40:55.463Z,11.23
2023-04-04T08:43:24.663Z,9.02
2023-04-04T08:45:54.696Z,9.50
2023-04-04T08:48:24.094Z,8.32
2023-04-04T08:50:51.722Z,9.38
2023-04-04T08:53:21.082Z,10.95
2023-04-04T08:55:48.930Z,9.98
2023-04-04T08:58:17.496Z,9.30
2023-04-04T09:00:45.086Z,19.42
2023-04-04T09:03:16.249Z,11.00
2023-04-04T09:05:45.075Z,11.82
2023-04-04T09:08:13.775Z,7.22
2023-04-04T09:10:44.284Z,9.30
2023-04-04T09:13:16.179Z,8.80
2023-04-04T09:15:47.110Z,9.20
2023-04-04T09:18:14.965Z,7.22
2023-04-04T09:20:43.310Z,12.15
2023-04-04T09:23:12.653Z,7.55
2023-04-04T09:25:56.211Z,7.68
2023-04-04T09:28:28.955Z,7.78
2023-04-04T09:30:56.600Z,10.23
2023-04-04T09:33:27.826Z,8.10
2023-04-04T09:35:56.514Z,9.32
2023-04-04T09:38:25.596Z,8.80
2023-04-04T09:40:55.678Z,7.63
2023-04-04T09:43:24.261Z,9.20
2023-04-04T09:45:51.966Z,12.68
2023-04-04T09:48:27.277Z,10.27
2023-04-04T09:50:54.940Z,13.82
2023-04-04T09:53:22.496Z,11.65
2023-04-04T09:59:00.711Z,11.57
2023-04-04T10:01:31.504Z,7.40
2023-04-04T10:03:59.470Z,8.77
2023-04-04T10:06:28.115Z,9.60
2023-04-04T10:09:02.278Z,7.93
2023-04-04T10:11:32.470Z,8.65
2023-04-04T10:14:00.639Z,10.48
2023-04-04T10:16:29.631Z,8.18
2023-04-04T10:18:57.308Z,9.95
2023-04-04T10:21:32.631Z,9.23
2023-04-04T10:24:03.273Z,11.93
2023-04-04T10:26:32.113Z,14.20
2023-04-04T10:29:00.583Z,14.50
2023-04-04T10:31:28.536Z,12.97
2023-04-04T10:34:02.679Z,12.10
2023-04-04T10:36:32.686Z,13.80
2023-04-04T10:39:06.722Z,11.65
2023-04-04T10:41:36.635Z,10.93
2023-04-04T10:44:38.788Z,12.98
2023-04-04T10:47:10.677Z,11.85
2023-04-04T10:49:48.027Z,9.90
2023-04-04T10:52:16.686Z,9.88
2023-04-04T10:54:44.933Z,12.02
2023-04-04T10:57:14.711Z,9.65
2023-04-04T11:00:16.581Z,10.23
2023-04-04T11:02:48.766Z,8.75
2023-04-04T11:05:23.844Z,9.15
2023-04-04T11:08:08.057Z,10.32
2023-04-04T11:10:36.828Z,10.82
2023-04-04T11:13:14.380Z,12.63
2023-04-04T11:15:53.095Z,10.38
2023-04-04T11:18:31.966Z,7.75
2023-04-04T11:21:02.438Z,9.20
2023-04-04T11:23:39.937Z,8.07
2023-04-04T11:26:08.476Z,9.27
2023-04-04T11:28:47.178Z,9.95
2023-04-04T11:31:29.839Z,7.93
2023-04-04T11:34:01.913Z,8.50
2023-04-04T11:36:47.821Z,10.80
2023-04-04T11:39:17.005Z,7.85
2023-04-04T11:41:45.035Z,10.30
2023-04-04T11:44:14.152Z,7.82
2023-04-04T11:46:42.261Z,11.90
2023-04-04T11:49:11.456Z,8.23
2023-04-04T11:51:40.825Z,11.00
2023-04-04T11:54:16.014Z,10.35
2023-04-04T11:56:44.402Z,8.45
2023-04-04T11:59:12.176Z,9.57
2023-04-04T12:01:41.615Z,8.45
2023-04-04T12:04:10.524Z,7.90
2023-04-04T12:06:38.331Z,8.10
2023-04-04T12:09:06.812Z,7.18
2023-04-04T12:11:35.351Z,7.05
2023-04-04T12:14:02.995Z,8.25
2023-04-04T12:16:30.953Z,8.70
2023-04-04T12:19:02.366Z,5.90
2023-04-04T12:21:55.501Z,8.80
2023-04-04T12:24:48.076Z,6.13
2023-04-04T12:27:16.842Z,6.60
2023-04-04T12:29:47.588Z,8.95
2023-04-04T12:32:15.878Z,9.07
2023-04-04T12:37:37.818Z,7.43
2023-04-04T12:40:07.429Z,7.15
2023-04-04T12:42:35.610Z,6.32
2023-04-04T12:47:57.993Z,7.90
2023-04-04T12:50:28.458Z,7.50
2023-04-04T12:53:13.496Z,5.93
2023-04-04T12:55:46.805Z,6.72
2023-04-04T12:58:16.227Z,7.30
2023-04-04T13:00:44.004Z,7.75
2023-04-04T13:06:11.979Z,6.15
2023-04-04T13:08:50.024Z,8.10
2023-04-04T13:11:19.862Z,6.22
2023-04-04T13:16:16.011Z,5.68
2023-04-04T13:18:44.439Z,6.93
2023-04-04T13:21:37.719Z,6.40
2023-04-04T13:24:08.885Z,5.70
2023-04-04T13:26:36.446Z,4.72
2023-04-04T13:29:06.269Z,9.88
2023-04-04T13:31:34.053Z,5.68
2023-04-04T13:34:01.598Z,5.47
2023-04-04T13:36:31.475Z,6.18
2023-04-04T13:38:59.141Z,6.30
2023-04-04T13:41:29.362Z,7.10
2023-04-04T13:43:56.920Z,6.13
2023-04-04T13:46:24.538Z,6.15
2023-04-04T13:48:52.123Z,4.80
2023-04-04T13:51:19.681Z,6.88
2023-04-04T13:53:53.046Z,5.70
2023-04-04T13:56:22.197Z,5.37
2023-04-04T13:58:50.929Z,7.32
2023-04-04T14:04:22.725Z,6.55
2023-04-04T14:06:51.327Z,5.20
2023-04-04T14:09:21.411Z,4.35
2023-04-04T14:11:49.024Z,5.55
2023-04-04T14:14:16.965Z,4.10
2023-04-04T14:16:44.641Z,5.82
2023-04-04T14:19:12.203Z,7.18
2023-04-04T14:21:39.757Z,5.13
2023-04-04T14:24:07.551Z,6.65
2023-04-04T14:26:37.918Z,7.68
2023-04-04T14:29:05.607Z,6.10
2023-04-04T14:31:35.156Z,8.10
2023-04-04T14:34:04.468Z,5.13
2023-04-04T14:36:32.239Z,5.18
2023-04-04T14:38:59.881Z,6.40
2023-04-04T14:41:27.592Z,7.15
2023-04-04T14:43:56.555Z,6.43
2023-04-04T14:46:25.169Z,5.18
2023-04-04T14:48:53.288Z,5.63
2023-04-04T14:51:21.019Z,8.13
2023-04-04T14:53:48.856Z,6.55
2023-04-04T14:56:16.659Z,10.05
2023-04-04T14:58:44.253Z,6.53
2023-04-04T15:01:13.981Z,6.03
2023-04-04T15:03:41.508Z,5.07
2023-04-04T15:06:09.182Z,6.03
2023-04-04T15:08:36.738Z,11.90
2023-04-04T15:11:04.381Z,7.32
2023-04-04T15:13:32.262Z,6.40
2023-04-04T15:16:01.610Z,7.78
2023-04-04T15:18:30.511Z,7.78
2023-04-04T15:20:58.609Z,6.50
2023-04-04T15:23:26.297Z,8.10
2023-04-04T15:25:53.795Z,6.25
2023-04-04T15:28:21.279Z,6.82
2023-04-04T15:30:51.384Z,6.00
2023-04-04T15:33:19.109Z,6.47
2023-04-04T15:35:48.398Z,7.10
2023-04-04T15:38:17.951Z,6.95
2023-04-04T15:40:45.917Z,7.53
2023-04-04T15:43:16.756Z,10.18
2023-04-04T15:45:48.274Z,7.20
2023-04-04T15:48:16.509Z,6.72
2023-04-04T15:50:47.692Z,7.75
2023-04-04T15:53:21.903Z,5.47
2023-04-04T15:58:48.947Z,5.88
2023-04-04T16:01:16.695Z,7.13
2023-04-04T16:03:44.985Z,8.75
2023-04-04T16:09:06.569Z,7.88
2023-04-04T16:11:36.193Z,6.88
2023-04-04T16:14:17.557Z,5.95
2023-04-04T16:16:45.057Z,6.60
2023-04-04T16:19:15.085Z,6.20
2023-04-04T16:21:42.778Z,7.72
2023-04-04T16:27:06.640Z,9.73
2023-04-04T16:29:35.899Z,7.95
2023-04-04T16:32:05.789Z,6.38
2023-04-04T16:34:33.406Z,7.20
2023-04-04T16:37:01.076Z,6.68
2023-04-04T16:39:28.764Z,7.88
2023-04-04T16:44:50.060Z,6.05
2023-04-04T16:47:17.616Z,7.10
2023-04-04T16:49:47.180Z,8.10
2023-04-04T16:52:14.914Z,5.38
2023-04-04T16:54:42.740Z,6.07
2023-04-04T16:57:10.367Z,7.88
2023-04-04T16:59:37.926Z,8.35
2023-04-04T17:04:52.494Z,8.57
2023-04-04T17:07:20.366Z,7.57
2023-04-04T17:09:48.851Z,9.35
2023-04-04T17:12:16.570Z,8.45
2023-04-04T17:14:44.551Z,10.15
2023-04-04T17:17:12.148Z,8.75
2023-04-04T17:19:39.806Z,9.15
2023-04-04T17:22:08.792Z,8.93
2023-04-04T17:24:36.281Z,9.90
2023-04-04T17:27:03.968Z,9.50
2023-04-04T17:29:31.803Z,10.05
2023-04-04T17:31:59.907Z,7.60
2023-04-04T17:34:27.684Z,7.00
2023-04-04T17:36:56.186Z,7.93
2023-04-04T17:39:25.131Z,8.02
2023-04-04T17:41:53.129Z,10.65
2023-04-04T17:44:21.413Z,10.45
2023-04-04T17:46:49.014Z,11.15
2023-04-04T17:49:19.816Z,8.85
2023-04-04T17:51:48.585Z,8.05
2023-04-04T17:54:16.368Z,17.08
2023-04-04T17:56:45.505Z,12.25
2023-04-04T17:59:13.682Z,9.32
2023-04-04T18:01:42.721Z,14.25
2023-04-04T18:04:13.079Z,10.85
2023-04-04T18:06:41.794Z,11.27
2023-04-04T18:09:10.234Z,9.30
2023-04-04T18:11:38.168Z,10.10
2023-04-04T18:14:07.172Z,13.10
2023-04-04T18:16:39.849Z,12.70
2023-04-04T18:19:10.336Z,12.50
2023-04-04T18:21:38.456Z,10.38
2023-04-04T18:24:07.528Z,15.88
2023-04-04T18:26:35.141Z,10.90
2023-04-04T18:29:03.024Z,11.73
2023-04-04T18:31:32.068Z,11.95
2023-04-04T18:33:59.638Z,11.65
2023-04-04T18:36:27.976Z,12.80
2023-04-04T18:38:55.433Z,12.68
2023-04-04T18:41:23.357Z,14.32
2023-04-04T18:43:50.950Z,16.25
2023-04-04T18:46:18.655Z,14.80
2023-04-04T18:48:47.646Z,16.77
2023-04-04T18:51:15.650Z,14.95
2023-04-04T18:53:43.182Z,11.10
2023-04-04T18:56:13.577Z,14.38
2023-04-04T18:58:44.436Z,14.98
2023-04-04T19:01:12.709Z,14.95
2023-04-04T19:03:45.021Z,16.23
2023-04-04T19:06:14.308Z,13.98
2023-04-04T19:08:44.261Z,13.82
2023-04-04T19:14:04.478Z,11.18
2023-04-04T19:16:32.048Z,12.18
2023-04-04T19:18:59.554Z,14.60
2023-04-04T19:21:29.647Z,16.75
2023-04-04T19:23:57.366Z,13.85
2023-04-04T19:26:24.856Z,13.68
2023-04-04T19:32:13.836Z,11.65
2023-04-04T19:34:41.788Z,13.98
2023-04-04T19:37:10.778Z,13.43
2023-04-04T19:39:40.715Z,14.27
2023-04-04T19:42:11.504Z,13.52
2023-04-04T19:44:39.644Z,15.23
2023-04-04T19:47:07.705Z,15.15
2023-04-04T19:49:35.461Z,13.35
2023-04-04T19:52:04.397Z,15.75
2023-04-04T19:54:39.011Z,16.23
2023-04-04T19:57:08.708Z,12.15
2023-04-04T19:59:48.842Z,13.35
2023-04-04T20:02:36.201Z,17.08
2023-04-04T20:05:24.431Z,16.83
2023-04-04T20:07:51.966Z,17.88
2023-04-04T20:10:36.198Z,18.27
2023-04-04T20:13:28.452Z,14.90
2023-04-04T20:16:22.256Z,18.53
2023-04-04T20:18:50.006Z,12.60
2023-04-04T20:21:18.262Z,13.65
2023-04-04T20:23:47.907Z,16.38
2023-04-04T20:26:37.545Z,17.33
2023-04-04T20:29:06.863Z,16.92
2023-04-04T20:31:51.744Z,15.57
2023-04-04T20:34:33.524Z,14.60
2023-04-04T20:37:01.342Z,12.23
2023-04-04T20:39:36.724Z,18.27
2023-04-04T20:42:11.828Z,15.20
2023-04-04T20:47:43.132Z,16.80
2023-04-04T20:50:29.549Z,14.43
2023-04-04T20:53:00.534Z,20.30
2023-04-04T20:55:29.432Z,15.68
2023-04-04T20:58:01.976Z,16.65
2023-04-04T21:00:47.134Z,13.20
2023-04-04T21:03:24.196Z,20.40
2023-04-04T21:05:52.271Z,13.88
2023-04-04T21:08:35.857Z,16.58
2023-04-04T21:11:04.889Z,17.63
2023-04-04T21:13:34.475Z,14.80
2023-04-04T21:16:27.425Z,15.40
2023-04-04T21:19:24.387Z,18.92
2023-04-04T21:21:52.269Z,14.93
2023-04-04T21:24:19.800Z,12.57
2023-04-04T21:26:47.926Z,16.00
2023-04-04T21:29:21.707Z,12.90
2023-04-04T21:31:50.588Z,19.42
2023-04-04T21:34:19.704Z,14.20
2023-04-04T21:36:47.818Z,18.85
2023-04-04T21:39:16.041Z,18.02
2023-04-04T21:41:44.360Z,13.70
2023-04-04T21:44:13.620Z,16.83
2023-04-04T21:46:42.859Z,21.20
2023-04-04T21:49:10.992Z,15.20
2023-04-04T21:51:38.721Z,15.50
2023-04-04T21:54:06.252Z,19.48
2023-04-04T21:56:33.974Z,15.48
2023-04-04T21:59:02.217Z,13.10
2023-04-04T22:01:30.849Z,18.08
2023-04-04T22:03:59.955Z,19.00
2023-04-04T22:06:27.859Z,17.45
2023-04-04T22:08:56.083Z,13.98
2023-04-04T22:11:25.861Z,17.35
2023-04-04T22:19:59.287Z,18.30
2023-04-04T22:22:29.752Z,20.52
2023-04-04T22:25:03.590Z,16.92
2023-04-04T22:27:31.663Z,21.38
2023-04-04T22:29:59.149Z,17.75
2023-04-04T22:32:26.887Z,16.38
2023-04-04T22:34:55.732Z,14.63
2023-04-04T22:37:23.169Z,16.05
2023-04-04T22:39:50.970Z,17.50
2023-04-04T22:42:18.745Z,18.75
2023-04-04T22:44:47.536Z,20.67
2023-04-04T22:47:15.619Z,15.90
2023-04-04T22:49:51.173Z,15.82
2023-04-04T22:52:22.753Z,15.80
2023-04-04T22:54:50.318Z,14.73
2023-04-04T22:57:17.809Z,15.38
2023-04-04T22:59:45.465Z,14.05
2023-04-04T23:02:13.115Z,15.35
2023-04-04T23:04:40.744Z,17.95
2023-04-04T23:07:08.768Z,15.93
2023-04-04T23:09:38.194Z,14.48
2023-04-04T23:12:05.867Z,15.02
2023-04-04T23:14:38.780Z,14.95
2023-04-04T23:17:06.890Z,13.10
2023-04-04T23:19:34.429Z,16.63
2023-04-04T23:22:01.970Z,16.88
2023-04-04T23:24:29.495Z,14.25
2023-04-04T23:26:58.376Z,13.70
2023-04-04T23:29:26.239Z,12.70
2023-04-04T23:31:53.757Z,18.05
2023-04-04T23:34:21.521Z,14.65
2023-04-04T23:36:49.089Z,14.45
2023-04-04T23:39:16.642Z,12.52
2023-04-04T23:41:44.106Z,15.05
2023-04-04T23:44:13.710Z,14.20
2023-04-04T23:46:41.262Z,12.07
2023-04-04T23:49:09.366Z,14.43
2023-04-04T23:51:39.056Z,14.30
2023-04-04T23:54:06.978Z,15.20
2023-04-04T23:56:34.717Z,12.45
2023-04-04T23:59:02.604Z,12.95
